createdAt,value
2019-03-22T00:00:56.047Z,3.9
2019-03-22T00:05:58.522Z,3.8
2019-03-22T00:11:00.980Z,3.8
2019-03-22T00:16:03.471Z,3.7
2019-03-22T00:21:05.933Z,3.6
2019-03-22T00:26:08.392Z,3.5
2019-03-22T00:31:10.913Z,3.4
2019-03-22T00:36:13.314Z,3.3
2019-03-22T00:41:15.765Z,3.3
2019-03-22T00:46:18.469Z,3.2
2019-03-22T00:51:20.766Z,3.1
2019-03-22T00:56:23.173Z,3.2
2019-03-22T01:06:28.294Z,3.1
2019-03-22T01:11:30.584Z,3.1
2019-03-22T01:16:33.028Z,3.1
2019-03-22T01:21:35.618Z,3.1
2019-03-22T01:26:37.946Z,3
2019-03-22T01:31:40.419Z,3
2019-03-22T01:36:44.361Z,3
2019-03-22T01:41:45.507Z,3
2019-03-22T01:46:47.817Z,2.9
2019-03-22T01:51:50.313Z,2.8
2019-03-22T01:56:52.795Z,2.8
2019-03-22T02:01:55.197Z,2.7
2019-03-22T02:06:57.674Z,2.7
2019-03-22T02:12:00.211Z,2.7
2019-03-22T02:17:02.584Z,2.7
2019-03-22T02:22:05.058Z,2.7
2019-03-22T02:27:07.505Z,2.7
2019-03-22T02:32:09.973Z,2.6
2019-03-22T02:37:12.472Z,2.5
2019-03-22T02:42:14.996Z,2.6
2019-03-22T02:47:17.507Z,2.5
2019-03-22T02:52:19.864Z,2.5
2019-03-22T02:57:22.301Z,2.5
2019-03-22T03:02:24.793Z,2.4
2019-03-22T03:07:27.247Z,2.4
2019-03-22T03:12:29.703Z,2.3
2019-03-22T03:17:32.120Z,2.3
2019-03-22T03:22:34.620Z,2.3
2019-03-22T03:27:37.079Z,2.3
2019-03-22T03:32:39.615Z,2.4
2019-03-22T03:37:42.030Z,2.4
2019-03-22T03:42:44.496Z,2.3
2019-03-22T03:47:46.901Z,2.4
2019-03-22T03:52:49.660Z,2.4
2019-03-22T03:57:51.870Z,2.4
2019-03-22T04:02:54.275Z,2.4
2019-03-22T04:08:01.754Z,2.4
2019-03-22T04:12:59.333Z,2.4
2019-03-22T04:18:01.668Z,2.4
2019-03-22T04:23:04.502Z,2.4
2019-03-22T04:28:06.592Z,2.3
2019-03-22T04:33:09.081Z,2.2
2019-03-22T04:38:11.547Z,2.2
2019-03-22T04:43:13.977Z,2.2
2019-03-22T04:48:16.517Z,2.2
2019-03-22T04:53:21.526Z,2.2
2019-03-22T04:58:21.359Z,2.1
2019-03-22T05:03:23.842Z,2.1
2019-03-22T05:13:28.745Z,2.1
2019-03-22T05:18:31.321Z,2.1
2019-03-22T05:23:33.685Z,2
2019-03-22T05:28:36.218Z,2.1
2019-03-22T05:33:38.590Z,2.2
2019-03-22T05:38:41.092Z,2.3
2019-03-22T05:43:43.514Z,2.3
2019-03-22T05:48:45.958Z,2.6
2019-03-22T05:53:48.421Z,2.9
2019-03-22T05:58:50.925Z,3.1
2019-03-22T06:03:53.345Z,3.4
2019-03-22T06:08:55.916Z,3.6
2019-03-22T06:13:58.441Z,3.7
2019-03-22T06:19:00.744Z,3.9
2019-03-22T06:24:03.201Z,4.1
2019-03-22T06:29:05.778Z,4.4
2019-03-22T06:34:08.254Z,4.7
2019-03-22T06:39:10.676Z,5
2019-03-22T06:44:13.158Z,5.3
2019-03-22T06:49:15.629Z,5.6
2019-03-22T06:54:18.102Z,7.5
2019-03-22T06:59:20.444Z,10.9
2019-03-22T07:04:22.899Z,14.6
2019-03-22T07:09:25.353Z,18.3
2019-03-22T07:14:27.871Z,21.5
2019-03-22T07:19:30.257Z,23.5
2019-03-22T07:24:32.722Z,24.9
2019-03-22T07:29:35.255Z,26.4
2019-03-22T07:34:37.641Z,27.4
2019-03-22T07:39:40.131Z,28.3
2019-03-22T07:44:42.602Z,28.6
2019-03-22T07:49:45.042Z,29.2
2019-03-22T07:54:47.606Z,30.2
2019-03-22T07:59:50.005Z,31.4
2019-03-22T08:04:52.392Z,32.9
2019-03-22T08:09:54.930Z,34.2
2019-03-22T08:14:57.867Z,35.2
2019-03-22T08:19:59.801Z,36.1
2019-03-22T08:25:02.391Z,36.8
2019-03-22T08:30:04.716Z,36.8
2019-03-22T08:35:07.254Z,36.3
2019-03-22T08:40:09.723Z,35.1
2019-03-22T08:45:12.132Z,34.1
2019-03-22T08:50:14.593Z,34.2
2019-03-22T08:55:17.136Z,34.6
2019-03-22T09:00:19.583Z,35.7
2019-03-22T09:05:22.011Z,37.3
2019-03-22T09:10:24.395Z,38.5
2019-03-22T09:15:26.855Z,39.5
2019-03-22T09:20:29.372Z,40.5
2019-03-22T09:25:31.760Z,41.4
2019-03-22T09:30:34.365Z,42.3
2019-03-22T09:35:36.715Z,42.9
2019-03-22T09:40:39.202Z,42.9
2019-03-22T09:45:41.630Z,43.2
2019-03-22T09:50:44.090Z,43.5
2019-03-22T09:55:46.559Z,43.8
2019-03-22T10:00:49.170Z,44.4
2019-03-22T10:05:51.561Z,45.2
2019-03-22T10:10:53.952Z,45.5
2019-03-22T10:15:56.516Z,45
2019-03-22T10:20:58.879Z,44.3
2019-03-22T10:26:01.403Z,43.4
2019-03-22T10:31:03.824Z,42.4
2019-03-22T10:36:06.276Z,41.8
2019-03-22T10:41:08.766Z,42
2019-03-22T10:46:11.295Z,42.3
2019-03-22T10:51:13.677Z,42.7
2019-03-22T10:56:16.196Z,43.5
2019-03-22T11:01:18.619Z,44.4
2019-03-22T11:06:25.655Z,44.7
2019-03-22T11:11:23.528Z,45
2019-03-22T11:16:26.118Z,45.2
2019-03-22T11:21:28.472Z,45.4
2019-03-22T11:26:30.911Z,45.5
2019-03-22T11:31:39.683Z,45.5
2019-03-22T11:36:35.915Z,45.3
2019-03-22T11:41:38.321Z,45.2
2019-03-22T11:46:40.832Z,44.5
2019-03-22T11:56:45.696Z,43
2019-03-22T12:01:48.189Z,42.6
2019-03-22T12:06:50.654Z,42
2019-03-22T12:11:53.116Z,42
2019-03-22T12:16:56.678Z,42.3
2019-03-22T12:21:58.068Z,41.8
2019-03-22T12:27:00.709Z,41.4
2019-03-22T12:32:02.932Z,41.7
2019-03-22T12:37:05.398Z,41.4
2019-03-22T12:42:07.867Z,39.4
2019-03-22T12:47:10.402Z,36.9
2019-03-22T12:52:12.838Z,35.5
2019-03-22T12:57:15.251Z,35.9
2019-03-22T13:02:17.710Z,36.1
2019-03-22T13:07:20.161Z,35.2
2019-03-22T13:12:22.606Z,33.3
2019-03-22T13:17:25.114Z,31.1
2019-03-22T13:22:27.549Z,29.2
2019-03-22T13:27:29.999Z,28.2
2019-03-22T13:32:32.625Z,27.3
2019-03-22T13:37:34.933Z,27
2019-03-22T13:42:37.426Z,27.2
2019-03-22T13:47:39.918Z,26.7
2019-03-22T13:52:42.621Z,25.9
2019-03-22T13:57:44.871Z,24.5
2019-03-22T14:02:47.232Z,23
2019-03-22T14:07:49.657Z,21.7
2019-03-22T14:12:52.126Z,21
2019-03-22T14:17:54.642Z,20.6
2019-03-22T14:22:57.054Z,20.4
2019-03-22T14:27:59.533Z,20.2
2019-03-22T14:38:04.418Z,20.2
2019-03-22T14:43:06.918Z,20
2019-03-22T14:48:09.430Z,19.9
2019-03-22T14:53:11.877Z,19.9
2019-03-22T14:58:14.243Z,19.7
2019-03-22T15:03:22.467Z,19.6
2019-03-22T15:08:19.169Z,19.8
2019-03-22T15:13:21.665Z,19.7
2019-03-22T15:18:24.131Z,19.8
2019-03-22T15:23:26.585Z,19.8
2019-03-22T15:28:29.060Z,19.6
2019-03-22T15:33:34.021Z,19.4
2019-03-22T15:43:36.366Z,19.2
2019-03-22T15:48:38.861Z,19.1
2019-03-22T15:53:41.350Z,19
2019-03-22T15:58:43.766Z,18.8
2019-03-22T16:03:46.382Z,18.7
2019-03-22T16:08:48.680Z,18.6
2019-03-22T16:13:51.224Z,18.5
2019-03-22T16:18:53.607Z,18.3
2019-03-22T16:23:56.057Z,18.2
2019-03-22T16:28:58.500Z,17.9
2019-03-22T16:34:00.965Z,17.6
2019-03-22T16:39:03.477Z,17.4
2019-03-22T16:44:05.934Z,17.2
2019-03-22T16:49:08.614Z,17
2019-03-22T16:54:10.924Z,16.8
2019-03-22T16:59:13.303Z,16.6
2019-03-22T17:04:15.733Z,16.4
2019-03-22T17:09:18.280Z,16.2
2019-03-22T17:14:21.793Z,16
2019-03-22T17:19:23.392Z,15.7
2019-03-22T17:24:25.582Z,15.5
2019-03-22T17:29:27.993Z,15.2
2019-03-22T17:34:30.443Z,14.7
2019-03-22T17:39:32.949Z,14.2
2019-03-22T17:44:35.367Z,13.7
2019-03-22T17:49:47.495Z,13.2
2019-03-22T17:54:40.283Z,12.8
2019-03-22T17:59:42.753Z,12.5
2019-03-22T18:04:45.238Z,12.3
2019-03-22T18:09:47.728Z,12.1
2019-03-22T18:14:50.145Z,11.8
2019-03-22T18:19:53.476Z,11.7
2019-03-22T18:24:55.069Z,11.5
2019-03-22T18:29:57.476Z,11.4
2019-03-22T18:34:59.943Z,11.3
2019-03-22T18:40:02.514Z,11.3
2019-03-22T18:45:04.938Z,11.1
2019-03-22T18:50:07.331Z,11
2019-03-22T18:55:09.882Z,11
2019-03-22T19:00:12.320Z,10.9
2019-03-22T19:05:14.703Z,10.7
2019-03-22T19:10:17.220Z,10.6
2019-03-22T19:15:19.613Z,10.4
2019-03-22T19:20:22.214Z,10.2
2019-03-22T19:25:24.533Z,10.1
2019-03-22T19:30:26.990Z,9.9
2019-03-22T19:35:29.434Z,9.8
2019-03-22T19:40:31.947Z,9.6
2019-03-22T19:45:34.334Z,9.5
2019-03-22T19:50:36.817Z,9.4
2019-03-22T19:55:39.265Z,9.4
2019-03-22T20:00:41.722Z,9.3
2019-03-22T20:05:44.226Z,9.2
2019-03-22T20:10:46.654Z,9.1
2019-03-22T20:15:49.159Z,9
2019-03-22T20:20:51.564Z,8.9
2019-03-22T20:25:54.001Z,8.8
2019-03-22T20:30:56.464Z,8.7
2019-03-22T20:35:59.042Z,8.5
2019-03-22T20:41:01.439Z,8.5
2019-03-22T20:46:03.826Z,8.4
2019-03-22T20:51:06.312Z,8.3
2019-03-22T20:56:08.745Z,8.2
2019-03-22T21:01:11.255Z,8.2
2019-03-22T21:06:13.714Z,8.2
2019-03-22T21:11:16.219Z,8.1
2019-03-22T21:16:18.620Z,8.1
2019-03-22T21:21:21.327Z,8
2019-03-22T21:26:23.501Z,8.1
2019-03-22T21:31:25.963Z,8.1
2019-03-22T21:36:28.408Z,8
2019-03-22T21:41:30.910Z,7.9
2019-03-22T21:46:33.351Z,7.8
2019-03-22T21:51:35.791Z,7.7
2019-03-22T21:56:38.246Z,7.6
2019-03-22T22:01:40.708Z,7.5
2019-03-22T22:06:43.581Z,7.3
2019-03-22T22:11:45.659Z,7.3
2019-03-22T22:16:48.370Z,7.2
2019-03-22T22:21:50.985Z,7.1
2019-03-22T22:26:53.003Z,7
2019-03-22T22:31:55.452Z,7
2019-03-22T22:36:57.984Z,6.9
2019-03-22T22:42:00.384Z,6.8
2019-03-22T22:47:02.835Z,6.7
2019-03-22T22:52:05.570Z,6.6
2019-03-22T23:02:10.266Z,6.4
2019-03-22T23:07:12.720Z,6.3
2019-03-22T23:12:15.133Z,6.3
2019-03-22T23:17:17.600Z,6.2
2019-03-22T23:22:20.097Z,6.1
2019-03-22T23:27:22.483Z,6
2019-03-22T23:32:25.028Z,6
2019-03-22T23:37:27.401Z,5.9
2019-03-22T23:42:29.856Z,5.9
2019-03-22T23:47:32.422Z,5.8
2019-03-22T23:52:34.771Z,5.7
2019-03-22T23:57:37.314Z,5.7
